Time;durP1;ratioP1;P1;durP2;ratioP2;P2;SDS_P1;SDS_P2;PMS_P1;PMS_P2;Temp;Humidity;BMP_temperature;BMP_pressure;BME280_temperature;BME280_humidity;BME280_pressure;Samples;Min_cycle;Max_cycle;Signal;HPM_P1;HPM_P2
2022/04/21 00:00:13;;;;;;;6.83;2.43;;;10.70;1.00;;;;;;5071896;28;20560;-74
2022/04/21 00:02:39;;;;;;;5.73;2.33;;;10.70;1.00;;;;;;5071844;28;20264;-75
2022/04/21 00:05:05;;;;;;;3.57;2.20;;;10.60;99.90;;;;;;5054158;28;20187;-77
2022/04/21 00:07:31;;;;;;;2.73;2.07;;;10.50;99.90;;;;;;5053916;28;20187;-77
2022/04/21 00:09:57;;;;;;;4.27;2.37;;;10.50;1.00;;;;;;5071598;28;20583;-77
2022/04/21 00:12:22;;;;;;;4.70;2.20;;;10.50;1.00;;;;;;5071873;28;20228;-75
2022/04/21 00:14:48;;;;;;;3.27;2.20;;;10.40;1.00;;;;;;5057081;28;20274;-75
2022/04/21 00:17:13;;;;;;;2.30;2.10;;;10.30;99.90;;;;;;5057270;28;20273;-76
2022/04/21 00:19:39;;;;;;;4.93;2.17;;;10.20;99.90;;;;;;5075455;28;20358;-75
2022/04/21 00:24:49;;;;;;;2.83;2.00;;;10.20;1.00;;;;;;5075455;28;20178;-75
2022/04/21 00:27:15;;;;;;;4.47;2.33;;;10.10;1.00;;;;;;5075066;28;20210;-75
2022/04/21 00:29:40;;;;;;;4.53;2.20;;;10.10;1.00;;;;;;5057061;28;20357;-76
2022/04/21 00:32:06;;;;;;;4.63;2.50;;;10.00;1.00;;;;;;5057003;28;20654;-75
2022/04/21 00:37:17;;;;;;;5.87;2.77;;;9.90;1.00;;;;;;5054792;28;20219;-74
2022/04/21 00:39:43;;;;;;;4.43;2.53;;;9.80;99.90;;;;;;5055595;28;20233;-73
2022/04/21 00:42:08;;;;;;;3.57;2.50;;;9.80;1.00;;;;;;5037558;28;20188;-74
2022/04/21 00:44:34;;;;;;;5.53;2.67;;;9.70;1.00;;;;;;5037430;28;20191;-74
2022/04/21 00:47:03;;;;;;;3.63;2.17;;;9.60;1.00;;;;;;5053975;28;20203;-74
2022/04/21 00:49:31;;;;;;;4.40;2.60;;;9.60;1.00;;;;;;5037304;28;20195;-74
2022/04/21 00:51:59;;;;;;;5.70;2.63;;;9.60;1.00;;;;;;5055276;28;20359;-74
2022/04/21 00:54:25;;;;;;;2.67;2.33;;;9.50;1.00;;;;;;5055480;28;20218;-74
2022/04/21 00:56:51;;;;;;;5.80;2.40;;;9.40;1.00;;;;;;5055021;28;20206;-74
2022/04/21 00:59:17;;;;;;;4.30;2.80;;;9.40;1.00;;;;;;5055028;28;20631;-74
2022/04/21 01:04:28;;;;;;;6.03;2.70;;;9.30;1.00;;;;;;5055603;28;20175;-74
2022/04/21 01:06:54;;;;;;;4.77;2.60;;;9.20;1.00;;;;;;5054868;28;20219;-74
2022/04/21 01:09:21;;;;;;;3.23;2.40;;;9.20;5.60;;;;;;5055034;28;20246;-74
2022/04/21 01:11:50;;;;;;;3.90;2.63;;;9.10;99.90;;;;;;5054780;28;20172;-74
2022/04/21 01:14:15;;;;;;;4.90;2.70;;;9.10;99.90;;;;;;5054757;28;20194;-74
2022/04/21 01:16:41;;;;;;;4.07;2.67;;;9.10;99.90;;;;;;5054753;28;20183;-74
2022/04/21 01:19:07;;;;;;;3.83;2.20;;;9.00;99.90;;;;;;5054673;28;20171;-74
2022/04/21 01:21:33;;;;;;;5.23;2.67;;;9.00;1.00;;;;;;5054523;28;20230;-74
2022/04/21 01:23:58;;;;;;;5.23;2.60;;;8.90;1.00;;;;;;5054457;28;20180;-74
2022/04/21 01:26:28;;;;;;;3.87;3.00;;;8.90;1.00;;;;;;5036624;28;20209;-73
2022/04/21 01:28:55;;;;;;;6.23;2.67;;;8.80;1.00;;;;;;5036680;28;20327;-74
2022/04/21 01:31:22;;;;;;;3.90;2.27;;;8.80;1.00;;;;;;5054366;28;20290;-74
2022/04/21 01:33:47;;;;;;;3.37;2.60;;;8.80;1.00;;;;;;5054423;28;20262;-74
2022/04/21 01:36:13;;;;;;;5.07;2.63;;;8.70;1.00;;;;;;5054185;28;20215;-73
2022/04/21 01:41:27;;;;;;;2.80;2.50;;;8.70;99.90;;;;;;5025897;28;20195;-74
2022/04/21 01:43:52;;;;;;;7.27;2.90;;;8.60;99.90;;;;;;5054221;28;20179;-74
2022/04/21 01:46:18;;;;;;;3.53;2.67;;;8.60;1.00;;;;;;5054154;28;20571;-73
2022/04/21 01:48:44;;;;;;;5.27;2.50;;;8.50;1.00;;;;;;5036233;28;20184;-73
2022/04/21 01:51:09;;;;;;;6.20;2.77;;;8.50;1.00;;;;;;5053989;28;20203;-74
2022/04/21 01:53:35;;;;;;;5.27;2.90;;;8.40;1.00;;;;;;5054562;28;20515;-73
2022/04/21 01:56:01;;;;;;;5.90;3.27;;;8.30;99.90;;;;;;5036009;28;20296;-73
2022/04/21 01:58:26;;;;;;;5.13;2.47;;;8.30;99.90;;;;;;5054209;28;20207;-74
2022/04/21 02:00:52;;;;;;;8.13;2.63;;;8.30;1.00;;;;;;5054157;28;20211;-74
2022/04/21 02:03:18;;;;;;;4.00;3.10;;;8.20;1.00;;;;;;5036014;28;20179;-74
2022/04/21 02:05:44;;;;;;;4.60;2.63;;;8.20;95.00;;;;;;5053707;28;20214;-74
2022/04/21 02:08:09;;;;;;;4.60;2.70;;;8.20;99.90;;;;;;5035847;28;20188;-74
2022/04/21 02:10:35;;;;;;;5.10;2.80;;;8.10;99.90;;;;;;5053584;28;20196;-74
2022/04/21 02:13:00;;;;;;;4.77;2.93;;;8.00;1.00;;;;;;5053632;28;20179;-74
2022/04/21 02:15:27;;;;;;;5.77;2.70;;;8.00;1.00;;;;;;5035682;28;20667;-73
2022/04/21 02:17:52;;;;;;;4.93;3.00;;;8.00;99.90;;;;;;5035685;28;20180;-74
2022/04/21 02:20:18;;;;;;;3.50;2.47;;;7.90;99.90;;;;;;5035522;28;20235;-74
2022/04/21 02:22:44;;;;;;;4.27;3.37;;;7.90;1.00;;;;;;5053676;28;20634;-73
2022/04/21 02:25:11;;;;;;;5.80;3.50;;;7.90;99.90;;;;;;5035566;28;20208;-74
2022/04/21 02:27:39;;;;;;;4.03;2.80;;;7.80;1.00;;;;;;5053589;28;20184;-74
2022/04/21 02:30:06;;;;;;;3.87;2.93;;;7.70;1.00;;;;;;5053305;28;20206;-74
2022/04/21 02:32:32;;;;;;;7.87;3.40;;;7.70;1.00;;;;;;5035357;28;20234;-74
2022/04/21 02:34:58;;;;;;;8.13;3.57;;;7.70;1.00;;;;;;5035176;28;20183;-74
2022/04/21 02:37:24;;;;;;;4.33;3.20;;;7.70;99.90;;;;;;5053045;28;20245;-74
2022/04/21 02:39:50;;;;;;;5.13;3.30;;;7.70;1.00;;;;;;5053482;28;20651;-74
2022/04/21 02:42:20;;;;;;;3.20;2.90;;;7.70;1.00;;;;;;5035284;28;20183;-73
2022/04/21 02:44:46;;;;;;;4.13;3.07;;;7.70;1.00;;;;;;5053324;28;20176;-73
2022/04/21 02:47:12;;;;;;;6.43;3.30;;;7.60;68.20;;;;;;5035160;28;20188;-74
2022/04/21 02:49:40;;;;;;;4.30;3.30;;;7.60;1.00;;;;;;5053260;28;20187;-74
2022/04/21 02:52:06;;;;;;;5.27;3.30;;;7.50;1.00;;;;;;5053322;28;20176;-74
2022/04/21 02:57:22;;;;;;;3.43;3.10;;;7.50;1.00;;;;;;5052874;28;20211;-74
2022/04/21 02:59:54;;;;;;;4.43;3.40;;;7.40;1.00;;;;;;5035593;28;20191;-74
2022/04/21 03:02:21;;;;;;;8.23;3.23;;;7.30;99.90;;;;;;5053094;28;20635;-74
2022/04/21 03:04:47;;;;;;;4.60;3.37;;;7.30;99.90;;;;;;5052802;28;20266;-73
2022/04/21 03:07:14;;;;;;;7.33;3.47;;;7.30;99.90;;;;;;5034858;28;20219;-74
2022/04/21 03:09:42;;;;;;;4.63;3.80;;;7.30;1.00;;;;;;5052956;28;20579;-74
2022/04/21 03:12:08;;;;;;;6.17;3.27;;;7.20;1.00;;;;;;5034846;28;20754;-74
2022/04/21 03:14:36;;;;;;;3.43;2.97;;;7.20;1.00;;;;;;5035133;28;20559;-74
2022/04/21 03:17:02;;;;;;;4.90;3.50;;;7.10;1.00;;;;;;5052849;28;20191;-74
2022/04/21 03:19:28;;;;;;;4.47;3.77;;;7.10;1.00;;;;;;5052640;28;20198;-74
2022/04/21 03:24:37;;;;;;;3.47;3.17;;;7.10;1.00;;;;;;5052632;28;20263;-74
2022/04/21 03:27:04;;;;;;;5.03;3.20;;;7.00;1.00;;;;;;5034706;28;20723;-74
2022/04/21 03:29:29;;;;;;;3.97;3.50;;;7.00;20.90;;;;;;5034576;28;20190;-74
2022/04/21 03:31:55;;;;;;;4.23;3.57;;;7.00;27.20;;;;;;5034726;28;20555;-74
2022/04/21 03:34:21;;;;;;;4.77;3.77;;;7.00;49.20;;;;;;5052566;28;20250;-74
2022/04/21 03:36:48;;;;;;;4.93;3.60;;;7.00;68.60;;;;;;5052133;28;20214;-74
2022/04/21 03:39:15;;;;;;;4.23;3.27;;;7.00;99.90;;;;;;5053050;28;20531;-73
2022/04/21 03:41:41;;;;;;;3.83;3.40;;;7.00;99.90;;;;;;5052791;28;20183;-73
2022/04/21 03:44:07;;;;;;;3.73;3.40;;;6.90;99.90;;;;;;5053160;28;20191;-74
2022/04/21 03:46:32;;;;;;;9.53;4.10;;;7.00;99.90;;;;;;5034419;28;20582;-73
2022/04/21 03:48:58;;;;;;;7.63;3.50;;;6.90;99.90;;;;;;5054655;28;20551;-74
2022/04/21 03:51:25;;;;;;;5.50;3.60;;;7.00;99.90;;;;;;5056591;28;20195;-73
2022/04/21 03:53:51;;;;;;;7.90;3.87;;;7.00;99.90;;;;;;5056506;28;20195;-74
2022/04/21 03:56:17;;;;;;;5.77;3.43;;;6.90;99.90;;;;;;5038287;28;20667;-73
2022/04/21 03:58:42;;;;;;;6.83;3.47;;;6.90;99.90;;;;;;5056199;28;20183;-73
2022/04/21 04:01:08;;;;;;;6.13;3.70;;;6.90;99.90;;;;;;5056420;28;20175;-73
2022/04/21 04:03:33;;;;;;;5.50;3.37;;;6.90;99.90;;;;;;5038276;28;20300;-74
2022/04/21 04:05:59;;;;;;;5.57;3.53;;;6.90;99.90;;;;;;5038083;28;20203;-73
2022/04/21 04:11:10;;;;;;;4.50;3.37;;;6.80;95.60;;;;;;5056262;28;20222;-74
2022/04/21 04:13:35;;;;;;;7.40;3.53;;;6.80;94.60;;;;;;5038027;28;20183;-74
2022/04/21 04:16:01;;;;;;;4.70;3.67;;;6.80;71.80;;;;;;5055793;28;20279;-74
2022/04/21 04:18:28;;;;;;;5.10;3.90;;;6.80;99.90;;;;;;5038014;28;20187;-74
2022/04/21 04:20:54;;;;;;;5.07;3.60;;;6.80;91.70;;;;;;5037723;28;20678;-74
2022/04/21 04:23:21;;;;;;;6.53;3.50;;;6.80;61.30;;;;;;5055776;28;20183;-74
2022/04/21 04:25:47;;;;;;;9.00;3.67;;;6.80;40.20;;;;;;5037763;28;20215;-73
2022/04/21 04:28:13;;;;;;;5.10;4.10;;;6.80;1.00;;;;;;5055617;28;20643;-73
2022/04/21 04:30:39;;;;;;;7.90;4.13;;;6.70;3.90;;;;;;5055612;28;20207;-74
2022/04/21 04:33:08;;;;;;;5.23;3.87;;;6.70;1.00;;;;;;5055555;28;20230;-74
2022/04/21 04:35:34;;;;;;;5.13;3.90;;;6.70;1.00;;;;;;5037491;28;20310;-73
2022/04/21 04:38:00;;;;;;;7.20;4.03;;;6.70;1.00;;;;;;5037478;28;20215;-74
2022/04/21 04:40:26;;;;;;;4.83;3.87;;;6.70;1.00;;;;;;5037567;28;20187;-74
2022/04/21 04:42:55;;;;;;;4.80;4.10;;;6.70;1.00;;;;;;5055240;28;20187;-73
2022/04/21 04:48:05;;;;;;;4.10;3.70;;;6.60;99.90;;;;;;5055038;28;20223;-74
2022/04/21 04:50:31;;;;;;;4.00;3.27;;;6.60;1.00;;;;;;5054707;28;20207;-73
2022/04/21 04:53:00;;;;;;;6.40;3.97;;;6.60;1.00;;;;;;5054960;28;20552;-73
2022/04/21 04:55:26;;;;;;;5.13;3.77;;;6.60;15.20;;;;;;5055007;28;20254;-74
2022/04/21 04:57:52;;;;;;;4.60;3.50;;;6.60;88.70;;;;;;5036671;28;20187;-74
2022/04/21 05:00:18;;;;;;;4.50;3.40;;;6.60;83.40;;;;;;5054379;28;20263;-74
2022/04/21 05:02:47;;;;;;;4.10;3.70;;;6.60;99.90;;;;;;5054463;28;20194;-73
2022/04/21 05:05:12;;;;;;;4.50;3.77;;;6.60;99.90;;;;;;5054492;28;20215;-74
2022/04/21 05:07:39;;;;;;;6.17;3.43;;;6.60;99.90;;;;;;5054421;28;20183;-75
2022/04/21 05:10:07;;;;;;;4.97;3.57;;;6.60;99.90;;;;;;5054351;28;20330;-75
2022/04/21 05:12:33;;;;;;;5.83;3.77;;;6.50;99.90;;;;;;5054421;28;20182;-75
2022/04/21 05:14:58;;;;;;;5.50;3.90;;;6.50;99.90;;;;;;5054228;28;20180;-75
2022/04/21 05:17:25;;;;;;;4.93;3.90;;;6.50;99.90;;;;;;5054229;28;20631;-74
2022/04/21 05:19:52;;;;;;;4.37;3.73;;;6.50;99.90;;;;;;5036254;28;20195;-75
2022/04/21 05:22:18;;;;;;;4.57;3.93;;;6.60;99.90;;;;;;5054099;28;20258;-74
2022/04/21 05:24:48;;;;;;;5.37;3.40;;;6.60;99.90;;;;;;5054308;28;20211;-73
2022/04/21 05:27:14;;;;;;;7.07;4.00;;;6.60;99.90;;;;;;5036176;28;20186;-73
2022/04/21 05:32:28;;;;;;;4.87;4.10;;;6.60;99.90;;;;;;5054574;28;20179;-74
2022/04/21 05:34:54;;;;;;;6.47;4.03;;;6.60;99.90;;;;;;5035732;28;20184;-75
2022/04/21 05:37:20;;;;;;;6.27;4.07;;;6.60;99.90;;;;;;5035737;28;20673;-75
2022/04/21 05:39:45;;;;;;;6.00;3.90;;;6.70;99.90;;;;;;5053807;28;20194;-74
2022/04/21 05:42:22;;;;;;;6.97;4.30;;;6.70;99.90;;;;;;5035672;28;20195;-74
2022/04/21 05:44:50;;;;;;;5.77;3.93;;;6.70;99.90;;;;;;5035776;28;20186;-75
2022/04/21 05:47:15;;;;;;;9.13;4.13;;;6.70;99.90;;;;;;5035640;28;20242;-74
2022/04/21 05:49:41;;;;;;;5.60;4.60;;;6.80;99.90;;;;;;5035968;28;20192;-74
2022/04/21 05:52:08;;;;;;;7.00;3.97;;;6.80;99.90;;;;;;5053903;28;20642;-74
2022/04/21 05:54:33;;;;;;;4.47;3.77;;;6.90;99.90;;;;;;5053350;28;20187;-74
2022/04/21 05:56:59;;;;;;;5.50;4.50;;;6.90;1.00;;;;;;5053235;28;20199;-75
2022/04/21 05:59:25;;;;;;;6.77;3.73;;;7.00;1.00;;;;;;5053852;28;20186;-75
2022/04/21 06:01:50;;;;;;;4.47;4.07;;;7.10;1.00;;;;;;5053706;28;20250;-74
2022/04/21 06:04:16;;;;;;;5.87;3.97;;;7.10;1.00;;;;;;5053301;28;20564;-75
2022/04/21 06:06:41;;;;;;;4.73;4.13;;;7.20;99.90;;;;;;5053363;28;20211;-75
2022/04/21 06:09:07;;;;;;;6.47;4.33;;;7.30;1.00;;;;;;5053177;28;20266;-75
2022/04/21 06:11:33;;;;;;;7.00;4.47;;;7.40;1.00;;;;;;5052275;28;20689;-74
2022/04/21 06:13:59;;;;;;;5.57;4.63;;;7.50;99.90;;;;;;5053383;28;20174;-74
2022/04/21 06:16:24;;;;;;;5.93;3.97;;;7.60;1.00;;;;;;5035113;28;20234;-75
2022/04/21 06:18:50;;;;;;;5.93;4.30;;;7.70;1.00;;;;;;5053211;28;20183;-74
2022/04/21 06:21:16;;;;;;;5.50;4.13;;;7.90;20.20;;;;;;5052898;28;20176;-75
2022/04/21 06:23:41;;;;;;;6.00;4.00;;;8.00;1.00;;;;;;5052941;28;20190;-75
2022/04/21 06:26:07;;;;;;;7.40;3.80;;;8.10;1.00;;;;;;5052680;28;20199;-75
2022/04/21 06:28:35;;;;;;;5.57;3.60;;;8.30;1.00;;;;;;5053167;28;20176;-75
2022/04/21 06:31:01;;;;;;;5.07;3.70;;;8.40;99.90;;;;;;5053134;28;20218;-75
2022/04/21 06:33:30;;;;;;;6.43;3.47;;;8.50;99.90;;;;;;5052629;28;20242;-74
2022/04/21 06:35:56;;;;;;;5.00;3.90;;;8.60;99.90;;;;;;5053647;28;20238;-74
2022/04/21 06:38:22;;;;;;;7.40;3.57;;;8.70;99.90;;;;;;5052420;28;20183;-75
2022/04/21 06:40:47;;;;;;;5.43;3.67;;;8.80;93.00;;;;;;5034591;28;20183;-75
2022/04/21 06:48:44;;;;;;;6.17;3.50;;;9.00;1.00;;;;;;5053585;28;20218;-74
2022/04/21 06:51:11;;;;;;;7.27;3.53;;;9.10;1.00;;;;;;5052113;28;20349;-75
2022/04/21 06:53:39;;;;;;;5.10;3.90;;;9.30;99.90;;;;;;5052464;28;20519;-75
2022/04/21 06:56:05;;;;;;;5.23;3.40;;;9.30;99.90;;;;;;5051861;28;20301;-75
2022/04/21 06:58:31;;;;;;;5.40;3.87;;;9.40;1.00;;;;;;5034314;28;20283;-74
2022/04/21 07:00:56;;;;;;;6.60;4.00;;;9.50;99.90;;;;;;5052533;28;20634;-75
2022/04/21 07:03:23;;;;;;;3.90;3.50;;;9.50;1.00;;;;;;5052258;28;20190;-75
2022/04/21 07:05:51;;;;;;;6.87;4.13;;;9.60;1.00;;;;;;5052127;28;20191;-75
2022/04/21 07:08:17;;;;;;;6.53;3.70;;;9.70;99.90;;;;;;5051912;28;20172;-73
2022/04/21 07:10:42;;;;;;;3.97;3.50;;;9.80;26.30;;;;;;5052128;28;20199;-75
2022/04/21 07:13:10;;;;;;;10.27;4.67;;;9.90;95.50;;;;;;5034115;28;20274;-75
2022/04/21 07:15:35;;;;;;;7.60;3.63;;;9.90;58.10;;;;;;5052087;28;20635;-74
2022/04/21 07:18:01;;;;;;;5.03;3.70;;;10.00;99.90;;;;;;5034457;28;20210;-75
2022/04/21 07:20:26;;;;;;;8.53;4.07;;;10.00;99.90;;;;;;5052617;28;20192;-75
2022/04/21 07:22:52;;;;;;;6.13;3.70;;;10.10;99.90;;;;;;5052011;28;20180;-75
2022/04/21 07:25:17;;;;;;;6.40;4.20;;;10.20;1.00;;;;;;5034276;28;20195;-75
2022/04/21 07:27:43;;;;;;;8.23;3.47;;;10.30;74.10;;;;;;5052111;28;20179;-73
2022/04/21 07:30:09;;;;;;;6.80;4.43;;;10.40;1.00;;;;;;5051984;28;20539;-75
2022/04/21 07:32:35;;;;;;;5.90;3.90;;;10.50;1.00;;;;;;5052030;28;20198;-75
2022/04/21 07:35:01;;;;;;;5.80;3.87;;;10.60;1.00;;;;;;5051787;28;20297;-75
2022/04/21 07:37:27;;;;;;;5.00;3.77;;;10.60;1.00;;;;;;5052407;28;20214;-74
2022/04/21 07:39:52;;;;;;;4.43;3.63;;;10.70;99.90;;;;;;5051789;28;20266;-75
2022/04/21 07:42:18;;;;;;;8.37;4.13;;;10.60;99.90;;;;;;5034095;28;20231;-76
2022/04/21 07:44:44;;;;;;;5.77;4.03;;;10.80;99.90;;;;;;5033905;28;20234;-74
2022/04/21 07:47:09;;;;;;;8.57;4.07;;;10.80;64.70;;;;;;5051795;28;20282;-75
2022/04/21 07:49:48;;;;;;;5.50;3.50;;;10.90;99.90;;;;;;5051694;28;20180;-75
2022/04/21 07:55:14;;;;;;;7.03;3.73;;;11.10;1.00;;;;;;5051968;28;20261;-75
2022/04/21 07:57:40;;;;;;;7.20;4.23;;;11.20;32.40;;;;;;5051922;28;20264;-75
2022/04/21 08:00:07;;;;;;;4.57;3.60;;;11.30;1.00;;;;;;5051915;28;20168;-76
2022/04/21 08:02:32;;;;;;;5.13;3.00;;;11.40;1.00;;;;;;5052051;28;20218;-75
2022/04/21 08:04:58;;;;;;;4.10;2.93;;;11.40;1.00;;;;;;5051959;28;20602;-75
2022/04/21 08:07:24;;;;;;;6.03;3.23;;;11.50;1.00;;;;;;5033948;28;20187;-75
2022/04/21 08:09:49;;;;;;;2.90;2.30;;;11.60;1.00;;;;;;5051625;28;20183;-75
2022/04/21 08:12:15;;;;;;;6.10;2.33;;;11.70;99.90;;;;;;5051676;28;20227;-75
2022/04/21 08:14:40;;;;;;;2.40;2.07;;;11.80;99.90;;;;;;5051717;28;20651;-75
2022/04/21 08:17:06;;;;;;;4.33;1.93;;;11.90;99.90;;;;;;5033647;28;20203;-75
2022/04/21 08:19:32;;;;;;;2.77;2.00;;;12.00;99.90;;;;;;5033828;28;20590;-76
2022/04/21 08:21:58;;;;;;;1.87;1.70;;;12.10;1.00;;;;;;5051725;28;20615;-76
2022/04/21 08:32:44;;;;;;;3.30;2.00;;;12.50;99.90;;;;;;5051641;28;20218;-76
2022/04/21 08:35:13;;;;;;;3.03;1.77;;;12.60;99.90;;;;;;5035760;28;20235;-75
2022/04/21 08:37:40;;;;;;;5.33;2.10;;;12.70;99.90;;;;;;5055355;28;20295;-75
2022/04/21 08:40:06;;;;;;;1.87;1.50;;;12.80;1.00;;;;;;5055366;28;20203;-76
2022/04/21 08:42:37;;;;;;;1.83;1.50;;;12.90;99.90;;;;;;5055319;28;20187;-74
2022/04/21 08:45:03;;;;;;;3.00;1.60;;;13.00;25.20;;;;;;5054908;28;20214;-76
2022/04/21 08:47:29;;;;;;;3.33;1.27;;;13.10;1.00;;;;;;5055022;28;20176;-75
2022/04/21 08:50:12;;;;;;;4.00;1.60;;;13.10;1.00;;;;;;5055790;28;20577;-76
2022/04/21 08:52:39;;;;;;;3.83;1.83;;;13.20;1.00;;;;;;5038534;28;20694;-76
2022/04/21 08:55:05;;;;;;;2.77;1.90;;;13.30;1.00;;;;;;5036589;28;20294;-76
2022/04/21 08:57:31;;;;;;;4.13;1.90;;;13.30;1.00;;;;;;5054685;28;20259;-74
2022/04/21 08:59:59;;;;;;;4.17;1.47;;;13.40;1.00;;;;;;5054551;28;20231;-76
2022/04/21 09:02:39;;;;;;;3.33;1.63;;;13.50;1.00;;;;;;5054726;28;20183;-76
2022/04/21 09:05:06;;;;;;;4.37;1.80;;;13.50;1.00;;;;;;5036569;28;20207;-77
2022/04/21 09:07:32;;;;;;;3.33;1.63;;;13.50;1.00;;;;;;5054454;28;20254;-76
2022/04/21 09:10:12;;;;;;;2.00;1.80;;;13.60;1.00;;;;;;5036427;28;20200;-76
2022/04/21 09:12:46;;;;;;;3.07;1.90;;;13.70;1.00;;;;;;5054369;28;20166;-75
2022/04/21 09:15:17;;;;;;;3.90;1.80;;;13.70;1.00;;;;;;5036272;28;20227;-77
2022/04/21 09:17:51;;;;;;;2.23;1.73;;;13.80;1.00;;;;;;5054076;28;20172;-76
2022/04/21 09:20:22;;;;;;;4.37;1.60;;;13.80;1.00;;;;;;5054240;28;20207;-76
2022/04/21 09:22:54;;;;;;;4.07;2.27;;;13.90;1.00;;;;;;5036304;28;20237;-76
2022/04/21 09:25:21;;;;;;;4.80;1.90;;;13.90;1.00;;;;;;5054101;28;20621;-76
2022/04/21 09:27:50;;;;;;;4.93;1.80;;;14.10;1.00;;;;;;5036134;28;20573;-75
2022/04/21 09:30:17;;;;;;;3.00;2.10;;;14.10;1.00;;;;;;5054083;28;20203;-76
2022/04/21 09:32:51;;;;;;;2.43;1.50;;;14.20;27.40;;;;;;5035913;28;20183;-76
2022/04/21 09:35:17;;;;;;;2.53;1.80;;;14.20;1.00;;;;;;5053894;28;20230;-77
2022/04/21 09:37:48;;;;;;;5.87;2.03;;;14.40;1.00;;;;;;5053873;28;20644;-75
2022/04/21 09:40:15;;;;;;;3.57;2.10;;;14.40;1.00;;;;;;5053842;28;20175;-76
2022/04/21 09:42:40;;;;;;;5.40;1.90;;;14.40;1.00;;;;;;5053754;28;20184;-76
2022/04/21 09:47:55;;;;;;;2.93;1.90;;;14.50;1.00;;;;;;5054205;28;20257;-75
2022/04/21 09:50:23;;;;;;;3.70;1.80;;;14.50;1.00;;;;;;5038223;28;20218;-76
2022/04/21 09:52:52;;;;;;;2.13;1.70;;;14.60;1.00;;;;;;5055267;28;20180;-77
2022/04/21 09:55:26;;;;;;;2.80;1.97;;;14.60;1.00;;;;;;5035709;28;20196;-76
2022/04/21 09:58:02;;;;;;;4.17;2.23;;;14.70;1.00;;;;;;5035538;28;20183;-76
2022/04/21 10:00:29;;;;;;;3.40;1.93;;;14.70;1.00;;;;;;5035677;28;20175;-76
2022/04/21 10:02:56;;;;;;;7.27;1.50;;;14.80;1.00;;;;;;5053562;28;20663;-76
2022/04/21 10:05:21;;;;;;;3.67;2.03;;;14.90;1.00;;;;;;5053593;28;20629;-75
2022/04/21 10:07:48;;;;;;;5.70;2.30;;;14.90;1.00;;;;;;5053432;28;20218;-75
2022/04/21 10:10:13;;;;;;;4.03;2.20;;;15.00;1.00;;;;;;5035368;28;20238;-75
2022/04/21 10:12:40;;;;;;;4.77;2.17;;;15.10;1.00;;;;;;5035437;28;20190;-75
2022/04/21 10:15:08;;;;;;;5.47;2.40;;;15.10;1.00;;;;;;5035239;28;20200;-75
2022/04/21 10:17:33;;;;;;;2.90;2.10;;;15.10;1.00;;;;;;5053189;28;20168;-76
2022/04/21 10:20:00;;;;;;;2.80;1.80;;;15.10;1.00;;;;;;5053154;28;20184;-75
2022/04/21 10:22:27;;;;;;;8.47;2.30;;;15.20;1.00;;;;;;5053072;28;20195;-76
2022/04/21 10:24:59;;;;;;;1.73;1.53;;;15.20;1.00;;;;;;5035377;28;20187;-76
2022/04/21 10:27:47;;;;;;;3.13;1.97;;;15.20;1.00;;;;;;5053015;28;20186;-76
2022/04/21 10:30:25;;;;;;;5.27;1.60;;;15.30;1.00;;;;;;5035572;28;20594;-76
2022/04/21 10:33:01;;;;;;;2.23;1.57;;;15.40;1.00;;;;;;5053088;28;20643;-75
2022/04/21 10:35:36;;;;;;;4.97;1.83;;;15.50;1.00;;;;;;5052856;28;20198;-75
2022/04/21 10:38:17;;;;;;;4.63;1.70;;;15.60;1.00;;;;;;5034937;28;20290;-74
2022/04/21 10:40:57;;;;;;;3.93;1.80;;;15.50;1.00;;;;;;5034687;28;20310;-74
2022/04/21 10:43:24;;;;;;;4.40;2.50;;;15.80;1.00;;;;;;5052807;28;20171;-75
2022/04/21 10:46:04;;;;;;;2.80;1.40;;;15.80;1.00;;;;;;5034657;28;20579;-75
2022/04/21 10:48:40;;;;;;;2.50;1.53;;;15.80;1.00;;;;;;5052593;28;20175;-74
2022/04/21 10:51:06;;;;;;;2.47;1.60;;;15.80;1.00;;;;;;5053023;28;20234;-75
2022/04/21 10:59:31;;;;;;;3.83;2.07;;;15.70;1.00;;;;;;5052699;28;20251;-74
2022/04/21 11:02:11;;;;;;;5.67;1.80;;;15.80;1.00;;;;;;5052604;28;20175;-75
2022/04/21 11:04:37;;;;;;;4.97;1.90;;;15.80;1.00;;;;;;5052423;28;20612;-75
2022/04/21 11:07:11;;;;;;;5.40;1.73;;;15.90;1.00;;;;;;5052260;28;20211;-75
2022/04/21 11:09:46;;;;;;;3.37;1.83;;;15.80;1.00;;;;;;5034394;28;20555;-75
2022/04/21 11:12:14;;;;;;;2.53;2.00;;;15.80;1.00;;;;;;5052603;28;20155;-75
2022/04/21 11:14:40;;;;;;;5.37;1.97;;;15.80;1.00;;;;;;5052281;28;20183;-75
2022/04/21 11:17:07;;;;;;;3.70;1.73;;;15.80;1.00;;;;;;5052178;28;20191;-75
2022/04/21 11:19:44;;;;;;;5.33;1.90;;;15.80;1.00;;;;;;5018080;28;20195;-75
2022/04/21 11:22:12;;;;;;;6.23;1.63;;;16.00;1.00;;;;;;5052369;28;20155;-75
2022/04/21 11:24:56;;;;;;;4.20;1.57;;;16.00;1.00;;;;;;5052319;28;20659;-75
2022/04/21 11:27:22;;;;;;;2.67;1.70;;;16.00;1.00;;;;;;5052093;28;20186;-75
2022/04/21 11:29:48;;;;;;;4.57;1.90;;;16.00;1.00;;;;;;5034045;28;20176;-75
2022/04/21 11:32:16;;;;;;;2.37;1.90;;;15.90;1.00;;;;;;5034437;28;20191;-75
2022/04/21 11:34:42;;;;;;;5.27;2.20;;;15.90;1.00;;;;;;5034731;28;20180;-75
2022/04/21 11:37:08;;;;;;;4.23;2.33;;;15.90;1.00;;;;;;5052580;28;20191;-75
2022/04/21 11:39:38;;;;;;;4.13;1.97;;;15.90;1.00;;;;;;5053098;28;20234;-75
2022/04/21 11:42:04;;;;;;;4.63;1.93;;;16.00;1.00;;;;;;5034880;28;20246;-74
2022/04/21 11:44:29;;;;;;;3.10;1.77;;;16.00;1.00;;;;;;5052114;28;20211;-75
2022/04/21 11:46:55;;;;;;;8.70;2.03;;;16.10;1.00;;;;;;5052212;28;20210;-75
2022/04/21 11:49:20;;;;;;;3.60;2.00;;;16.10;1.00;;;;;;5052376;28;20190;-75
2022/04/21 11:51:52;;;;;;;2.50;1.90;;;16.20;1.00;;;;;;5052277;28;20690;-75
2022/04/21 11:54:18;;;;;;;3.70;2.03;;;16.30;1.00;;;;;;5034086;28;20231;-75
2022/04/21 11:56:49;;;;;;;4.13;2.40;;;16.30;1.00;;;;;;5034037;28;20204;-74
2022/04/21 11:59:15;;;;;;;7.87;2.33;;;16.40;1.00;;;;;;5052594;28;20635;-75
2022/04/21 12:07:18;;;;;;;5.30;2.50;;;16.80;1.00;;;;;;5052644;28;20179;-75
2022/04/21 12:09:48;;;;;;;5.03;2.40;;;16.80;1.00;;;;;;5053796;28;20214;-75
2022/04/21 12:12:18;;;;;;;3.57;2.10;;;16.80;1.00;;;;;;5055691;28;20180;-76
2022/04/21 12:14:43;;;;;;;3.40;2.40;;;16.90;1.00;;;;;;5055623;28;20639;-72
2022/04/21 12:17:10;;;;;;;4.97;3.47;;;17.10;1.00;;;;;;5055537;28;20217;-76
2022/04/21 12:19:42;;;;;;;5.80;2.47;;;17.10;1.00;;;;;;5055461;28;20171;-75
2022/04/21 12:22:32;;;;;;;5.70;2.50;;;17.20;1.00;;;;;;5037349;28;20211;-75
2022/04/21 12:24:57;;;;;;;7.20;2.50;;;17.20;1.00;;;;;;5037896;28;20214;-75
2022/04/21 12:27:39;;;;;;;7.73;2.77;;;17.10;1.00;;;;;;5055267;28;20209;-75
2022/04/21 12:30:11;;;;;;;3.60;2.53;;;17.00;1.00;;;;;;5055191;28;20258;-75
2022/04/21 12:32:43;;;;;;;6.03;2.50;;;16.90;1.00;;;;;;5055306;28;20172;-75
2022/04/21 12:35:10;;;;;;;7.27;2.60;;;16.80;1.00;;;;;;5055047;28;20222;-76
2022/04/21 12:38:50;;;;;;;3.37;2.47;;;16.60;1.00;;;;;;5055779;28;20175;-75
2022/04/21 12:40:41;;;;;;;4.53;2.30;;;16.70;1.00;;;;;;5054794;28;20230;-75
2022/04/21 12:43:07;;;;;;;3.87;2.43;;;16.80;1.00;;;;;;5055172;28;20561;-74
2022/04/21 12:45:32;;;;;;;4.20;2.40;;;16.70;1.00;;;;;;5054996;28;20231;-75
2022/04/21 12:47:58;;;;;;;3.73;2.10;;;16.70;1.00;;;;;;5054939;28;20195;-75
2022/04/21 12:50:25;;;;;;;2.37;1.90;;;16.80;1.00;;;;;;5054803;28;20254;-75
2022/04/21 12:52:52;;;;;;;5.30;2.57;;;16.80;1.00;;;;;;5054977;28;20564;-75
2022/04/21 12:55:21;;;;;;;6.43;2.77;;;16.70;1.00;;;;;;5056274;28;20632;-75
2022/04/21 12:58:02;;;;;;;3.07;2.23;;;16.70;1.00;;;;;;5055221;28;20182;-74
2022/04/21 13:00:29;;;;;;;3.73;2.27;;;16.60;1.00;;;;;;5054718;28;20187;-75
2022/04/21 13:02:54;;;;;;;7.23;2.20;;;16.50;1.00;;;;;;5036745;28;20183;-75
2022/04/21 13:05:20;;;;;;;6.20;2.40;;;16.50;1.00;;;;;;5036620;28;20635;-75
2022/04/21 13:07:45;;;;;;;5.17;2.70;;;16.50;1.00;;;;;;5037027;28;20184;-74
2022/04/21 13:10:11;;;;;;;4.97;2.63;;;16.50;1.00;;;;;;5054273;28;20219;-75
2022/04/21 13:12:36;;;;;;;6.53;2.70;;;16.50;1.00;;;;;;5054258;28;20180;-76
2022/04/21 13:15:04;;;;;;;5.87;2.40;;;16.60;1.00;;;;;;5036290;28;20208;-75
2022/04/21 13:17:30;;;;;;;2.83;2.40;;;16.70;1.00;;;;;;5036268;28;20205;-74
2022/04/21 13:19:55;;;;;;;3.33;2.53;;;16.60;1.00;;;;;;5054133;28;20596;-75
2022/04/21 13:22:21;;;;;;;6.60;2.50;;;16.70;1.00;;;;;;5054073;28;20647;-76
2022/04/21 13:24:46;;;;;;;7.37;2.53;;;16.70;1.00;;;;;;5054036;28;20604;-74
2022/04/21 13:27:15;;;;;;;2.83;2.20;;;16.80;1.00;;;;;;5054069;28;20262;-75
2022/04/21 13:29:41;;;;;;;5.43;2.80;;;16.90;1.00;;;;;;5054144;28;20194;-75
2022/04/21 13:34:51;;;;;;;7.40;2.90;;;17.10;1.00;;;;;;5054327;28;20171;-75
2022/04/21 13:37:17;;;;;;;3.27;2.30;;;17.10;1.00;;;;;;5036838;28;20187;-75
2022/04/21 13:39:43;;;;;;;4.23;2.27;;;17.10;1.00;;;;;;5054200;28;20211;-73
2022/04/21 13:42:08;;;;;;;6.23;2.43;;;17.10;1.00;;;;;;5035902;28;20219;-75
2022/04/21 13:44:34;;;;;;;4.33;3.03;;;17.10;1.00;;;;;;5035905;28;20710;-75
2022/04/21 13:47:00;;;;;;;5.27;2.57;;;17.10;1.00;;;;;;5045381;28;20192;-75
2022/04/21 13:49:26;;;;;;;5.77;2.63;;;17.10;1.00;;;;;;5053851;28;20546;-75
2022/04/21 13:51:51;;;;;;;6.50;3.00;;;17.10;1.00;;;;;;5053868;28;20211;-76
2022/04/21 13:54:18;;;;;;;3.60;2.63;;;17.10;1.00;;;;;;5035727;28;20180;-75
2022/04/21 13:56:44;;;;;;;3.30;2.80;;;17.00;1.00;;;;;;5053596;28;20349;-75